CYBB/YBB METAR and TAF weather

Enter ICAO airport designator
Station Type Date Time Source
CYBB METAR 2019/10/21 22:00 UTC NOAA

CYBB 212200Z 16011KT 15SM FEW012 BKN022 01/M01 A2961 RMK SC1SC5 SLP029


Station Type Date Time Source
CYBB Decoded METAR 2019/10/21 22:00 UTC NOAA

Pelly Bay Airport, Canada (CYBB) 68-32N 089-49W
Oct 21, 2019 - 06:00 PM EDT / 2019.10.21 2200 UTC
Wind: from the SSE (160 degrees) at 13 MPH (11 KT):0
Visibility: 15 mile(s):0
Sky conditions: mostly cloudy
Temperature: 33 F (1 C)
Windchill: 23 F (-5 C):1
Dew Point: 30 F (-1 C)
Relative Humidity: 86%
Pressure (altimeter): 29.61 in. Hg (1002 hPa)
ob: CYBB 212200Z 16011KT 15SM FEW012 BKN022 01/M01 A2961 RMK SC1SC5 SLP029
cycle: 22

Station Type Date Time Source
CYBB TAF 2019/10/21 19:00 UTC NOAA

TAF CYBB 211838Z 2119/2123 18015G25KT P6SM SCT012 BKN025
TEMPO 2119/2123 SCT008 OVC012
RMK NXT FCST WILL BE ISSUED AT 221345Z

Example: see airport list